Fort Spring, West Virginia
Current Conditions -  °F | °C
As of 4:35 AM on Saturday 20 Dec 2014 (Local Time) from KLWB Reporting Station
Clear Clear  
Wind Chill: 16°   Ceiling: Unl
Heat Index: 23°   Visibility: 7mi
Dew Point: 21°   Wind: 6mph
Humidity: 91%   Direction: 20°NNE
Pressure: 30.15"   Gusts: NA
Location:  37.74°N, 80.54°W
Report Text: KLWB 200935Z AUTO 02005KT 7SM CLR M05/M06 A3015 RMK AO2 T10481061
Loading
Personal Weather Stations






























Interactive Weather Map New forecast layout! Learn more

10-Day Weather Forecast

Advertisements
Track Severe Weather on mobile